^^
Datos históricos de la estación: Murcia-Puente Tocinos
Diario Informe para Agosto 13, 2020 Unidades:  Métrico    Ingés   Ambas
Diario Semanal Mensual Anual
  Máxima: Mínima: Promedio:
Temperatura: 35 °C 24.1 °C 29.1 °C
Punto de rocio: 21.1 °C 14.9 °C 18.5 °C
Humedad: 76% 32% 55%
Velocidad viento: 20.1km/h 0km/h 7.6km/h
Racha viento: 33.8km/h - -
Viento- - SSE
Presión: 1013.4 hPa 1009.5 hPa -
Precipitación: 0.0 mm    
 
 
Tabla de datos para Agosto 13, 2020
Hora Temperatura Punto de rocio Presión Viento Velocidad viento Racha viento Humedad Intensidad lluvia(por hora) Nubes
00:04 27.4 °C 20.2 °C 1012.5 hPa Este 4.7 km/h 7.4 km/h 65% 0.0 mm
00:09 27.4 °C 20.2 °C 1012.5 hPa Este 4.6 km/h 8 km/h 65% 0.0 mm
00:14 27.4 °C 20.2 °C 1012.4 hPa ENE 4.6 km/h 8.4 km/h 65% 0.0 mm
00:19 27.4 °C 20.4 °C 1012.4 hPa NE 4.7 km/h 8 km/h 65.6% 0.0 mm
00:24 27.3 °C 20.4 °C 1012.4 hPa NE 4.7 km/h 9.3 km/h 66% 0.0 mm
00:29 27.2 °C 20.3 °C 1012.4 hPa ENE 4.6 km/h 9.7 km/h 66% 0.0 mm
00:34 27.2 °C 20.3 °C 1012.4 hPa Este 4.7 km/h 8 km/h 66% 0.0 mm
00:39 27.1 °C 20.4 °C 1012.5 hPa NE 5 km/h 8.4 km/h 66.6% 0.0 mm
00:44 27.1 °C 20.4 °C 1012.5 hPa NE 4.9 km/h 10 km/h 67% 0.0 mm
00:49 27 °C 20.4 °C 1012.5 hPa NNE 4.7 km/h 9.7 km/h 67% 0.0 mm
00:54 27 °C 20.4 °C 1012.5 hPa NNE 4.4 km/h 5.6 km/h 67% 0.0 mm
00:59 27 °C 20.1 °C 1012.5 hPa ESE 2.9 km/h 8.4 km/h 66.1% 0.0 mm
01:04 27 °C 20.1 °C 1012.5 hPa ESE 2.9 km/h 8 km/h 66% 0.0 mm
01:09 27 °C 20.2 °C 1012.5 hPa NNE 3.2 km/h 8.4 km/h 66.5% 0.0 mm
01:14 26.8 °C 20.5 °C 1012.4 hPa NNO 3.5 km/h 10 km/h 68.5% 0.0 mm
01:19 26.6 °C 20.6 °C 1012.4 hPa NNO 5 km/h 9.7 km/h 69.7% 0.0 mm
01:24 26.4 °C 20.7 °C 1012.5 hPa North 4.8 km/h 8.7 km/h 70.7% 0.0 mm
01:29 26.3 °C 20.8 °C 1012.5 hPa North 3.9 km/h 11.9 km/h 71.8% 0.0 mm
01:34 26.1 °C 20.9 °C 1012.5 hPa NNE 4.4 km/h 11.3 km/h 72.9% 0.0 mm
01:39 26 °C 20.9 °C 1012.5 hPa NNO 6.4 km/h 8.4 km/h 73.6% 0.0 mm
01:44 25.9 °C 20.9 °C 1012.5 hPa NE 5.8 km/h 8 km/h 74% 0.0 mm
01:49 25.9 °C 20.9 °C 1012.5 hPa NNE 3.2 km/h 6.4 km/h 74% 0.0 mm
01:54 25.9 °C 20.9 °C 1012.5 hPa NO 3.3 km/h 7.4 km/h 74% 0.0 mm
01:59 25.9 °C 20.9 °C 1012.5 hPa NNO 3.9 km/h 8 km/h 74.2% 0.0 mm
02:04 25.9 °C 21.1 °C 1012.5 hPa NNO 3.5 km/h 4.8 km/h 74.9% 0.0 mm
02:09 25.8 °C 20.9 °C 1012.5 hPa NNO 2.2 km/h 4.8 km/h 74.1% 0.0 mm
02:14 25.8 °C 21 °C 1012.4 hPa North 2.3 km/h 7.4 km/h 74.8% 0.0 mm
02:19 25.8 °C 21.1 °C 1012.4 hPa NNE 2.9 km/h 8 km/h 75% 0.0 mm
02:24 25.8 °C 21 °C 1012.4 hPa Este 3 km/h 8 km/h 74.9% 0.0 mm
02:29 25.8 °C 20.8 °C 1012.3 hPa Este 3.2 km/h 4.8 km/h 74% 0.0 mm
02:34 25.7 °C 20.5 °C 1012.3 hPa Este 2.7 km/h 3.9 km/h 73% 0.0 mm
02:39 25.7 °C 20.5 °C 1012.3 hPa Calm   3.9 km/h 73% 0.0 mm
02:44 25.7 °C 20.5 °C 1012.3 hPa Calm   3.2 km/h 73% 0.0 mm
02:49 25.7 °C 20.5 °C 1012.3 hPa Calm   5 km/h 73% 0.0 mm
02:54 25.7 °C 20.7 °C 1012.3 hPa NO 0.5 km/h 5.8 km/h 73.9% 0.0 mm
02:59 25.7 °C 20.7 °C 1012.2 hPa NO 2.9 km/h 6.4 km/h 74% 0.0 mm
03:04 25.6 °C 20.8 °C 1012.2 hPa NO 3 km/h 6.4 km/h 75% 0.0 mm
03:09 25.5 °C 20.8 °C 1012.2 hPa NO 3.2 km/h 6.4 km/h 75% 0.0 mm
03:14 25.4 °C 20.8 °C 1012.2 hPa NO 3 km/h 4.8 km/h 75.5% 0.0 mm
03:19 25.4 °C 20.8 °C 1012.2 hPa NO 2.2 km/h 5.6 km/h 76% 0.0 mm
03:24 25.4 °C 20.8 °C 1012.2 hPa NO 2.4 km/h 5.6 km/h 76% 0.0 mm
03:29 25.3 °C 20.8 °C 1012.1 hPa NNO 2.9 km/h 4.8 km/h 76% 0.0 mm
03:34 25.3 °C 20.8 °C 1012.1 hPa NNO 2.8 km/h 4.8 km/h 76% 0.0 mm
03:39 25.3 °C 20.8 °C 1012.1 hPa NE 2.2 km/h 7.4 km/h 76% 0.0 mm
03:44 25.4 °C 20.8 °C 1011.9 hPa Este 2.4 km/h 8 km/h 76% 0.0 mm
03:49 25.3 °C 20.8 °C 1011.9 hPa Este 3.2 km/h 8.4 km/h 75.9% 0.0 mm
03:54 25.2 °C 20.4 °C 1012.0 hPa ESE 3.4 km/h 8 km/h 74.8% 0.0 mm
03:59 25.1 °C 20.3 °C 1012.0 hPa ESE 3.9 km/h 8 km/h 74.8% 0.0 mm
04:04 24.9 °C 19.9 °C 1012.0 hPa SE 3.9 km/h 7.6 km/h 73.6% 0.0 mm
04:09 24.9 °C 19.3 °C 1012.0 hPa SSE 3.9 km/h 8 km/h 71.3% 0.0 mm
04:14 24.9 °C 19.3 °C 1011.9 hPa SSE 3.7 km/h 8 km/h 71% 0.0 mm
04:19 25.1 °C 19.4 °C 1011.9 hPa SO 3.2 km/h 4.8 km/h 71% 0.0 mm
04:24 25.2 °C 19.5 °C 1011.9 hPa OSO 3.2 km/h 5.6 km/h 71% 0.0 mm
04:29 25.3 °C 19.5 °C 1011.9 hPa OSO 2.9 km/h 5.8 km/h 70.5% 0.0 mm
04:34 25.3 °C 19.4 °C 1011.9 hPa OSO 2.9 km/h 6.4 km/h 70% 0.0 mm
04:39 25.3 °C 19.5 °C 1011.9 hPa SO 2.9 km/h 5.6 km/h 70.2% 0.0 mm
04:44 25.3 °C 19.4 °C 1011.8 hPa SSO 2.9 km/h 7.4 km/h 69.8% 0.0 mm
04:49 25.3 °C 19.1 °C 1011.8 hPa Sur 2.9 km/h 8 km/h 68.5% 0.0 mm
04:54 25.3 °C 18.8 °C 1011.8 hPa SSE 3.3 km/h 10 km/h 67.3% 0.0 mm
04:59 25.2 °C 18.5 °C 1011.8 hPa SSE 5 km/h 13 km/h 66.4% 0.0 mm
05:04 25.2 °C 18.4 °C 1011.8 hPa Sur 5.4 km/h 12.9 km/h 66% 0.0 mm
05:09 25.2 °C 18.4 °C 1011.8 hPa SSE 7.6 km/h 11.3 km/h 66% 0.0 mm
05:14 25.1 °C 18.5 °C 1011.8 hPa SSE 7.4 km/h 10 km/h 66.6% 0.0 mm
05:19 25.1 °C 18.5 °C 1011.8 hPa Sur 6.5 km/h 9.7 km/h 67% 0.0 mm
05:24 25 °C 18.4 °C 1011.9 hPa SE 6.5 km/h 10 km/h 67% 0.0 mm
05:29 24.9 °C 18.3 °C 1011.9 hPa SSE 6.5 km/h 9.7 km/h 67% 0.0 mm
05:34 24.8 °C 18.5 °C 1011.9 hPa SSO 6.5 km/h 9.7 km/h 67.9% 0.0 mm
05:39 24.8 °C 18.5 °C 1011.9 hPa SO 6.5 km/h 11.1 km/h 68% 0.0 mm
05:44 24.9 °C 18.6 °C 1011.9 hPa SO 6.2 km/h 9.3 km/h 68% 0.0 mm
05:49 24.8 °C 18.6 °C 1011.9 hPa SO 5 km/h 9.3 km/h 68% 0.0 mm
05:54 24.8 °C 18.5 °C 1011.9 hPa SO 5 km/h 9.7 km/h 68% 0.0 mm
05:59 24.8 °C 18.5 °C 1011.9 hPa SO 5 km/h 8 km/h 68% 0.0 mm
06:04 24.8 °C 18.6 °C 1011.9 hPa SO 4.9 km/h 10 km/h 68.4% 0.0 mm
06:09 24.7 °C 18.6 °C 1011.9 hPa SSO 4.7 km/h 9.7 km/h 69% 0.0 mm
06:14 24.7 °C 18.7 °C 1011.9 hPa Sur 4.7 km/h 9.7 km/h 69.2% 0.0 mm
06:19 24.7 °C 18.8 °C 1011.9 hPa Sur 4.7 km/h 8.4 km/h 70% 0.0 mm
06:24 24.7 °C 18.8 °C 1012.1 hPa SSE 4.7 km/h 8 km/h 69.9% 0.0 mm
06:29 24.6 °C 18.6 °C 1012.1 hPa SE 4.7 km/h 10.3 km/h 69% 0.0 mm
06:34 24.6 °C 18.7 °C 1012.1 hPa SE 5 km/h 11.9 km/h 69.5% 0.0 mm
06:39 24.4 °C 18.6 °C 1012.1 hPa SSE 6.9 km/h 13 km/h 70% 0.0 mm
06:44 24.3 °C 18.5 °C 1012.1 hPa Sur 6.8 km/h 12.9 km/h 70% 0.0 mm
06:49 24.2 °C 18.4 °C 1012.1 hPa SSE 6.5 km/h 11.1 km/h 70% 0.0 mm
06:54 24.2 °C 18.4 °C 1012.3 hPa SE 6.5 km/h 11.3 km/h 70% 0.0 mm
06:59 24.1 °C 18.3 °C 1012.3 hPa SSE 6.5 km/h 9.7 km/h 70% 0.0 mm
07:04 24.1 °C 18.3 °C 1012.3 hPa Sur 6 km/h 8 km/h 70% 0.0 mm
07:09 24.2 °C 18.4 °C 1012.5 hPa SSO 3.9 km/h 8 km/h 70% 0.0 mm
07:14 24.3 °C 18.5 °C 1012.5 hPa OSO 3.9 km/h 8 km/h 70% 0.0 mm
07:19 24.3 °C 18.5 °C 1012.5 hPa Oeste 3.9 km/h 8 km/h 70% 0.0 mm
07:24 24.3 °C 18.5 °C 1012.5 hPa Oeste 3.9 km/h 8.4 km/h 70% 0.0 mm
07:29 24.3 °C 18.5 °C 1012.5 hPa Oeste 3.9 km/h 8 km/h 70% 0.0 mm
07:34 24.3 °C 18.7 °C 1012.5 hPa Oeste 3.7 km/h 8 km/h 71% 0.0 mm
07:39 24.3 °C 18.7 °C 1012.7 hPa ONO 2.9 km/h 5.6 km/h 71% 0.0 mm
07:44 24.3 °C 18.7 °C 1012.7 hPa ONO 2.3 km/h 4.8 km/h 71% 0.0 mm
07:49 24.3 °C 18.7 °C 1012.7 hPa Calm   3.7 km/h 71% 0.0 mm
07:54 24.3 °C 18.7 °C 1012.7 hPa Calm   4.7 km/h 71% 0.0 mm
07:59 24.3 °C 18.7 °C 1012.7 hPa Calm   5.8 km/h 71% 0.0 mm
08:04 24.3 °C 18.7 °C 1012.7 hPa ENE 0.5 km/h 6.4 km/h 70.8% 0.0 mm
08:09 24.4 °C 18.6 °C 1012.8 hPa ENE 2.9 km/h 5.8 km/h 70% 0.0 mm
08:14 24.4 °C 18.6 °C 1012.8 hPa ENE 3 km/h 6.4 km/h 70% 0.0 mm
08:19 24.6 °C 18.7 °C 1012.8 hPa ESE 3.2 km/h 7.4 km/h 70% 0.0 mm
08:24 24.7 °C 18.8 °C 1012.9 hPa SSE 3.5 km/h 8 km/h 70% 0.0 mm
08:29 24.8 °C 18.7 °C 1012.9 hPa SSE 5 km/h 8 km/h 69.3% 0.0 mm
08:34 24.9 °C 18.8 °C 1012.9 hPa Sur 5 km/h 9.5 km/h 68.8% 0.0 mm
08:39 25.1 °C 18.8 °C 1013.1 hPa SSO 5 km/h 10 km/h 68% 0.0 mm
08:44 25.3 °C 18.7 °C 1013.1 hPa SO 5 km/h 9.7 km/h 67.2% 0.0 mm
08:49 25.5 °C 18.7 °C 1013.1 hPa OSO 5 km/h 8.4 km/h 66.3% 0.0 mm
08:54 25.7 °C 18.7 °C 1013.2 hPa SO 4.8 km/h 9.5 km/h 65.3% 0.0 mm
08:59 25.8 °C 18.7 °C 1013.2 hPa SSO 3.9 km/h 8.4 km/h 64.7% 0.0 mm
09:04 25.9 °C 18.7 °C 1013.2 hPa SSO 4.1 km/h 9.5 km/h 64.3% 0.0 mm
09:09 26.1 °C 18.7 °C 1013.2 hPa SO 5 km/h 9.7 km/h 64% 0.0 mm
09:14 26.2 °C 18.8 °C 1013.2 hPa SO 5 km/h 10.3 km/h 64.2% 0.0 mm
09:19 26.2 °C 18.8 °C 1013.2 hPa OSO 5 km/h 14 km/h 63.7% 0.0 mm
09:24 26.2 °C 18.6 °C 1013.4 hPa SO 5.3 km/h 14.8 km/h 63% 0.0 mm
09:29 26.2 °C 18.6 °C 1013.4 hPa OSO 6.9 km/h 14.5 km/h 63% 0.0 mm
09:34 26.4 °C 18.7 °C 1013.4 hPa OSO 6.3 km/h 9.7 km/h 62.9% 0.0 mm
09:39 26.6 °C 18.8 °C 1013.4 hPa SSO 3.9 km/h 9.3 km/h 62.2% 0.0 mm
09:44 26.7 °C 18.8 °C 1013.3 hPa SSO 4.2 km/h 10 km/h 62% 0.0 mm
09:49 26.6 °C 18.8 °C 1013.3 hPa SSO 5.8 km/h 13 km/h 62% 0.0 mm
09:54 26.6 °C 18.7 °C 1013.4 hPa SO 5.9 km/h 12.9 km/h 62% 0.0 mm
09:59 26.7 °C 18.8 °C 1013.4 hPa OSO 6.4 km/h 10 km/h 62% 0.0 mm
10:04 26.8 °C 18.8 °C 1013.4 hPa SO 6.5 km/h 11.1 km/h 61.6% 0.0 mm
10:09 26.9 °C 18.8 °C 1013.4 hPa SO 6.5 km/h 11.3 km/h 61.5% 0.0 mm
10:14 27 °C 19 °C 1013.3 hPa OSO 6.5 km/h 13 km/h 61.4% 0.0 mm
10:19 27.2 °C 19 °C 1013.3 hPa OSO 6.5 km/h 12.9 km/h 61% 0.0 mm
10:24 27.3 °C 19.1 °C 1013.3 hPa SO 6.2 km/h 11.3 km/h 61% 0.0 mm
10:29 27.6 °C 19.1 °C 1013.2 hPa OSO 5 km/h 11.1 km/h 60.1% 0.0 mm
10:34 27.8 °C 19.2 °C 1013.2 hPa SO 4.9 km/h 11.3 km/h 59.6% 0.0 mm
10:39 28 °C 19 °C 1013.2 hPa SO 4.7 km/h 11.1 km/h 58.2% 0.0 mm
10:44 28.1 °C 19 °C 1013.1 hPa Sur 4.9 km/h 11.3 km/h 58% 0.0 mm
10:49 28.2 °C 19.1 °C 1013.1 hPa SO 5.8 km/h 11.3 km/h 57.8% 0.0 mm
10:54 28.3 °C 19 °C 1013.1 hPa SSO 6 km/h 13.7 km/h 57.2% 0.0 mm
10:59 28.4 °C 19 °C 1013.1 hPa Oeste 6.9 km/h 13 km/h 57% 0.0 mm
11:04 28.5 °C 19.2 °C 1013.1 hPa Oeste 6.7 km/h 11.3 km/h 57% 0.0 mm
11:09 28.7 °C 19.2 °C 1013.1 hPa Oeste 5.8 km/h 11.3 km/h 56.4% 0.0 mm
11:14 28.9 °C 19.1 °C 1012.9 hPa OSO 5.6 km/h 11.3 km/h 55.6% 0.0 mm
11:19 29.2 °C 18.8 °C 1012.9 hPa Oeste 4.7 km/h 9.7 km/h 53.5% 0.0 mm
11:24 29.5 °C 18.9 °C 1012.9 hPa SO 4.9 km/h 11.1 km/h 52.9% 0.0 mm
11:29 29.6 °C 18.9 °C 1012.9 hPa SSO 6.4 km/h 12.2 km/h 52.5% 0.0 mm
11:34 29.7 °C 18.5 °C 1012.9 hPa Sur 6.6 km/h 13 km/h 51.2% 0.0 mm
11:39 29.8 °C 18.7 °C 1012.9 hPa SSE 6.9 km/h 12.9 km/h 51.5% 0.0 mm
11:44 30 °C 18.4 °C 1012.8 hPa ESE 6.9 km/h 11.3 km/h 49.9% 0.0 mm
11:49 30.3 °C 18.1 °C 1012.8 hPa ONO 6.5 km/h 11.3 km/h 48.1% 0.0 mm
11:54 30.5 °C 18.3 °C 1012.8 hPa Sur 6.3 km/h 10 km/h 48% 0.0 mm
11:59 30.7 °C 18.3 °C 1012.8 hPa SO 5.8 km/h 10 km/h 47.7% 0.0 mm
12:04 30.8 °C 17.9 °C 1012.8 hPa SO 5.9 km/h 11.1 km/h 46.4% 0.0 mm
12:09 30.9 °C 17.6 °C 1012.8 hPa North 6.4 km/h 11.3 km/h 45.2% 0.0 mm
12:14 31.1 °C 17.8 °C 1012.8 hPa NO 6.1 km/h 13 km/h 45% 0.0 mm
12:19 31.3 °C 18 °C 1012.8 hPa NNE 4.7 km/h 13.7 km/h 44.9% 0.0 mm
12:24 31.6 °C 17.9 °C 1012.8 hPa Sur 4.7 km/h 14.5 km/h 44% 0.0 mm
12:29 31.8 °C 17.8 °C 1012.8 hPa SE 5 km/h 17.2 km/h 43.3% 0.0 mm
12:34 32 °C 17.6 °C 1012.8 hPa ONO 5.3 km/h 17.7 km/h 42.3% 0.0 mm
12:39 32.2 °C 17.5 °C 1012.8 hPa SE 6.9 km/h 16.1 km/h 41.7% 0.0 mm
12:44 32.2 °C 17.4 °C 1012.6 hPa SE 6.8 km/h 13 km/h 41.4% 0.0 mm
12:49 32.2 °C 17.4 °C 1012.6 hPa SE 6.4 km/h 13 km/h 41.4% 0.0 mm
12:54 32.1 °C 17.6 °C 1012.6 hPa Este 6.7 km/h 13 km/h 41.9% 0.0 mm
12:59 32.3 °C 17.4 °C 1012.6 hPa Este 7.6 km/h 13 km/h 41% 0.0 mm
13:04 32.3 °C 17.3 °C 1012.6 hPa SSE 7.6 km/h 13.7 km/h 40.7% 0.0 mm
13:09 32.3 °C 17.2 °C 1012.6 hPa ENE 7.6 km/h 14.5 km/h 40.6% 0.0 mm
13:14 32.4 °C 17.2 °C 1012.5 hPa North 7 km/h 10 km/h 40.1% 0.0 mm
13:19 32.7 °C 17.3 °C 1012.5 hPa ENE 3.9 km/h 11.9 km/h 39.9% 0.0 mm
13:24 32.8 °C 16.6 °C 1012.5 hPa NE 4.3 km/h 13.7 km/h 38% 0.0 mm
13:29 32.8 °C 15.6 °C 1012.2 hPa NO 6.4 km/h 5.8 km/h 35.4% 0.0 mm
13:34 33.1 °C 16 °C 1012.2 hPa SSE 6.1 km/h 11.1 km/h 36% 0.0 mm
13:39 33.2 °C 16.1 °C 1012.2 hPa Este 4.7 km/h 11.9 km/h 36% 0.0 mm
13:44 33.2 °C 15.7 °C 1012.0 hPa ESE 5.2 km/h 11.3 km/h 35.2% 0.0 mm
13:49 33.3 °C 16 °C 1012.0 hPa SSE 7.6 km/h 11.3 km/h 35.4% 0.0 mm
13:54 33.6 °C 16.2 °C 1012.0 hPa NE 7.3 km/h 13.7 km/h 35.4% 0.0 mm
13:59 33.6 °C 16 °C 1011.9 hPa NNE 5.8 km/h 14.5 km/h 34.9% 0.0 mm
14:04 33.8 °C 15.9 °C 1011.9 hPa ONO 5.8 km/h 14.8 km/h 34.4% 0.0 mm
14:09 33.8 °C 15.3 °C 1011.9 hPa ONO 5.8 km/h 14.5 km/h 33% 0.0 mm
14:14 34.1 °C 15.2 °C 1011.6 hPa ONO 6 km/h 14.8 km/h 32.2% 0.0 mm
14:19 34.2 °C 15.2 °C 1011.6 hPa NO 6.9 km/h 14.8 km/h 32% 0.0 mm
14:24 34.2 °C 15.1 °C 1011.6 hPa Oeste 6.9 km/h 12.9 km/h 32% 0.0 mm
14:29 34.3 °C 15.2 °C 1011.4 hPa SSO 6.5 km/h 13.7 km/h 32% 0.0 mm
14:34 34.5 °C 15.7 °C 1011.4 hPa NO 6.7 km/h 15.6 km/h 32.5% 0.0 mm
14:39 34.5 °C 15.5 °C 1011.4 hPa NNE 7.6 km/h 16.1 km/h 32.2% 0.0 mm
14:44 34.5 °C 15.4 °C 1011.2 hPa NNE 7.4 km/h 14.5 km/h 32.1% 0.0 mm
14:49 34.4 °C 15.4 °C 1011.2 hPa NO 6.5 km/h 12.9 km/h 32% 0.0 mm
14:54 34.6 °C 15.5 °C 1011.2 hPa NNO 6.2 km/h 11.9 km/h 32% 0.0 mm
14:59 34.7 °C 15.6 °C 1011.1 hPa NNO 5 km/h 11.3 km/h 32.1% 0.0 mm
15:04 34.9 °C 15.8 °C 1011.1 hPa NNE 5.4 km/h 22.2 km/h 32.1% 0.0 mm
15:09 35 °C 15.9 °C 1011.1 hPa North 7.6 km/h 22.5 km/h 32% 0.0 mm
15:14 35 °C 15.9 °C 1011.0 hPa NNE 8 km/h 22.2 km/h 32.1% 0.0 mm
15:19 34.8 °C 16.8 °C 1011.0 hPa Este 10 km/h 22.5 km/h 34.4% 0.0 mm
15:24 34.9 °C 18 °C 1011.0 hPa ESE 9.5 km/h 25.6 km/h 37% 0.0 mm
15:29 34.6 °C 19.5 °C 1011.0 hPa ESE 7.6 km/h 25.9 km/h 41.2% 0.0 mm
15:34 34.3 °C 19.8 °C 1011.0 hPa Este 9.4 km/h 33.3 km/h 42.7% 0.0 mm
15:39 33.8 °C 19.8 °C 1011.0 hPa ESE 19 km/h 33.8 km/h 43.8% 0.0 mm
15:44 33.8 °C 19.8 °C 1010.7 hPa ESE 19.2 km/h 32.2 km/h 44% 0.0 mm
15:49 33.7 °C 19.6 °C 1010.7 hPa ESE 20.1 km/h 30.6 km/h 43.6% 0.0 mm
15:54 33.9 °C 19.6 °C 1010.7 hPa Este 19.3 km/h 29 km/h 43% 0.0 mm
15:59 33.9 °C 19.5 °C 1010.7 hPa Este 15.6 km/h 25.9 km/h 42.9% 0.0 mm
16:04 34 °C 19.6 °C 1010.7 hPa ESE 15.6 km/h 31.7 km/h 42.8% 0.0 mm
16:09 34.2 °C 19.4 °C 1010.7 hPa ESE 15.6 km/h 32.2 km/h 42% 0.0 mm
16:14 34.2 °C 19.5 °C 1010.5 hPa ESE 15.6 km/h 27.8 km/h 42.2% 0.0 mm
16:19 34.3 °C 19.2 °C 1010.5 hPa SE 15.6 km/h 27.8 km/h 41.3% 0.0 mm
16:24 34.1 °C 19.1 °C 1010.5 hPa ESE 15.5 km/h 27.8 km/h 41.1% 0.0 mm
16:29 34.2 °C 19.4 °C 1010.4 hPa ESE 14.8 km/h 27.4 km/h 41.9% 0.0 mm
16:34 34.4 °C 19.3 °C 1010.4 hPa SE 14.9 km/h 27.8 km/h 41.3% 0.0 mm
16:39 34.4 °C 19.3 °C 1010.4 hPa SE 15.6 km/h 27.4 km/h 41.4% 0.0 mm
16:44 34.5 °C 19.7 °C 1010.1 hPa ESE 15.3 km/h 25.9 km/h 42.1% 0.0 mm
16:49 34.3 °C 19.8 °C 1010.1 hPa ESE 14 km/h 31.5 km/h 42.7% 0.0 mm
16:54 34.2 °C 20.3 °C 1010.1 hPa ESE 14.4 km/h 32.2 km/h 44.3% 0.0 mm
16:59 34.1 °C 20.4 °C 1010.0 hPa ESE 16.4 km/h 27.8 km/h 44.6% 0.0 mm
17:04 34.2 °C 20.1 °C 1010.0 hPa ESE 16.4 km/h 29.6 km/h 43.7% 0.0 mm
17:09 34.2 °C 20.1 °C 1010.0 hPa ESE 16.1 km/h 29 km/h 43.8% 0.0 mm
17:14 34.2 °C 20.4 °C 1009.9 hPa ESE 16.3 km/h 27.8 km/h 44.6% 0.0 mm
17:19 34.1 °C 20.1 °C 1009.9 hPa ESE 17.2 km/h 31.5 km/h 43.9% 0.0 mm
17:24 34 °C 19.9 °C 1009.9 hPa SE 17.2 km/h 32.2 km/h 43.7% 0.0 mm
17:29 34 °C 20.1 °C 1009.8 hPa ESE 17.2 km/h 25.7 km/h 44.3% 0.0 mm
17:34 34.1 °C 20.1 °C 1009.8 hPa ESE 17 km/h 27.8 km/h 44% 0.0 mm
17:39 33.9 °C 19.6 °C 1009.8 hPa ESE 16.4 km/h 27.4 km/h 43% 0.0 mm
17:44 33.9 °C 19.6 °C 1009.8 hPa ESE 16.4 km/h 24.5 km/h 43% 0.0 mm
17:49 34 °C 19.5 °C 1009.8 hPa ESE 16.1 km/h 24.1 km/h 42.6% 0.0 mm
17:54 34.1 °C 19.6 °C 1009.8 hPa ESE 15.7 km/h 22.5 km/h 42.5% 0.0 mm
17:59 34 °C 19.5 °C 1009.8 hPa ESE 14.8 km/h 27.4 km/h 42.6% 0.0 mm
18:04 34 °C 19.3 °C 1009.8 hPa ESE 14.8 km/h 27.4 km/h 42% 0.0 mm
18:09 34.2 °C 19.1 °C 1009.8 hPa ESE 14.8 km/h 20.9 km/h 41% 0.0 mm
18:14 34.2 °C 19.1 °C 1009.6 hPa SE 14.5 km/h 20.9 km/h 41% 0.0 mm
18:19 34.3 °C 19.1 °C 1009.6 hPa ESE 13 km/h 20.9 km/h 41.1% 0.0 mm
18:24 34.4 °C 19.3 °C 1009.6 hPa ESE 12.5 km/h 20.9 km/h 41% 0.0 mm
18:29 34.5 °C 19 °C 1009.6 hPa ESE 10.3 km/h 20.9 km/h 40.1% 0.0 mm
18:34 34.4 °C 18.9 °C 1009.6 hPa ESE 11 km/h 24.5 km/h 40.1% 0.0 mm
18:39 34.3 °C 18.7 °C 1009.6 hPa SE 13.7 km/h 24.1 km/h 39.9% 0.0 mm
18:44 34.2 °C 18.5 °C 1009.6 hPa SE 13.7 km/h 22.5 km/h 39.6% 0.0 mm
18:49 34.2 °C 18.5 °C 1009.6 hPa ESE 14 km/h 22.5 km/h 39.4% 0.0 mm
18:54 34.3 °C 18.4 °C 1009.6 hPa ESE 13.7 km/h 20.9 km/h 39.3% 0.0 mm
18:59 34.3 °C 18.4 °C 1009.6 hPa SE 12.2 km/h 22.2 km/h 39.1% 0.0 mm
19:04 34.2 °C 18.3 °C 1009.6 hPa SE 12.2 km/h 22.5 km/h 39% 0.0 mm
19:09 34.1 °C 18.2 °C 1009.6 hPa SE 12.2 km/h 22.2 km/h 39% 0.0 mm
19:14 34.1 °C 18.1 °C 1009.5 hPa ESE 12.2 km/h 22.5 km/h 38.9% 0.0 mm
19:19 34.1 °C 18.1 °C 1009.5 hPa ESE 11.9 km/h 20.9 km/h 38.9% 0.0 mm
19:24 34.1 °C 18 °C 1009.5 hPa ESE 12 km/h 19.3 km/h 38.7% 0.0 mm
19:29 33.9 °C 18 °C 1009.5 hPa ESE 12.2 km/h 19.3 km/h 39% 0.0 mm
19:34 33.9 °C 17.9 °C 1009.5 hPa ESE 12 km/h 20.9 km/h 38.7% 0.0 mm
19:39 33.9 °C 17.6 °C 1009.6 hPa ESE 11.1 km/h 20.9 km/h 38% 0.0 mm
19:44 33.8 °C 17.5 °C 1009.6 hPa ESE 11 km/h 16.7 km/h 38% 0.0 mm
19:49 33.8 °C 17.5 °C 1009.6 hPa ESE 10.3 km/h 17.2 km/h 38.1% 0.0 mm
19:54 33.8 °C 17.4 °C 1009.6 hPa ESE 10.2 km/h 17.7 km/h 37.9% 0.0 mm
19:59 33.8 °C 17.1 °C 1009.6 hPa ESE 9.5 km/h 14.8 km/h 37.2% 0.0 mm
20:04 33.7 °C 17 °C 1009.6 hPa ESE 9.3 km/h 14.5 km/h 37% 0.0 mm
20:09 33.7 °C 17 °C 1009.7 hPa ESE 8.7 km/h 14.5 km/h 37% 0.0 mm
20:14 33.6 °C 16.9 °C 1009.7 hPa ESE 8.7 km/h 13 km/h 37% 0.0 mm
20:19 33.4 °C 16.8 °C 1009.7 hPa Este 8.7 km/h 13.7 km/h 37% 0.0 mm
20:24 33.3 °C 16.5 °C 1009.9 hPa Este 8.7 km/h 14.8 km/h 36.8% 0.0 mm
20:29 33.2 °C 16.4 °C 1009.9 hPa NE 8.7 km/h 14.5 km/h 36.7% 0.0 mm
20:34 33 °C 16.8 °C 1009.9 hPa NNE 8.7 km/h 23.3 km/h 38% 0.0 mm
20:39 32 °C 16.4 °C 1010.2 hPa NNE 8.7 km/h 24.1 km/h 39.2% 0.0 mm
20:44 31.4 °C 16 °C 1010.2 hPa NNE 9.8 km/h 24.1 km/h 39.7% 0.0 mm
20:49 30.9 °C 15.4 °C 1010.2 hPa NNE 14 km/h 27 km/h 39.1% 0.0 mm
20:54 30.7 °C 15.1 °C 1010.4 hPa NNE 14.3 km/h 27.8 km/h 39.1% 0.0 mm
20:59 30.4 °C 14.9 °C 1010.4 hPa NNE 15.6 km/h 28.2 km/h 39% 0.0 mm
21:04 30.2 °C 14.9 °C 1010.4 hPa NNE 15.2 km/h 27.4 km/h 39.5% 0.0 mm
21:09 30.1 °C 15 °C 1010.7 hPa NNE 13.7 km/h 20.9 km/h 40% 0.0 mm
21:14 29.9 °C 15.2 °C 1010.7 hPa NNE 13.4 km/h 19.3 km/h 40.9% 0.0 mm
21:19 29.8 °C 15.3 °C 1010.7 hPa NNE 11.9 km/h 19.3 km/h 41.5% 0.0 mm
21:24 29.6 °C 15.4 °C 1010.9 hPa NNE 11.9 km/h 22.2 km/h 42.4% 0.0 mm
21:29 29.3 °C 15.8 °C 1010.9 hPa NNE 11.9 km/h 22.5 km/h 43.9% 0.0 mm
21:34 29.3 °C 16.2 °C 1010.9 hPa NNE 12 km/h 20.9 km/h 45.3% 0.0 mm
21:39 29.1 °C 16.3 °C 1011.2 hPa NNE 12.2 km/h 20.4 km/h 46.1% 0.0 mm
21:44 29 °C 16.5 °C 1011.2 hPa NNE 12.2 km/h 22.2 km/h 47% 0.0 mm
21:49 28.9 °C 16.5 °C 1011.2 hPa NNE 12.2 km/h 22.5 km/h 47.3% 0.0 mm
21:54 28.8 °C 16.7 °C 1011.5 hPa NNE 11.7 km/h 16.7 km/h 48% 0.0 mm
21:59 28.7 °C 16.8 °C 1011.5 hPa NE 9.5 km/h 18.5 km/h 48.6% 0.0 mm
22:04 28.6 °C 16.9 °C 1011.5 hPa NNE 9.9 km/h 19.3 km/h 49% 0.0 mm
22:09 28.5 °C 17 °C 1011.7 hPa NNE 11.9 km/h 17.7 km/h 49.7% 0.0 mm
22:14 28.3 °C 16.9 °C 1011.7 hPa NNE 11.5 km/h 16.1 km/h 49.9% 0.0 mm
22:19 28.3 °C 16.8 °C 1011.7 hPa NNE 10 km/h 16.1 km/h 49.6% 0.0 mm
22:24 28.3 °C 17.1 °C 1012.0 hPa NNE 10 km/h 14.8 km/h 50.7% 0.0 mm
22:29 28.1 °C 17.2 °C 1012.0 hPa NNE 10 km/h 15.6 km/h 51.7% 0.0 mm
22:34 27.8 °C 17.1 °C 1012.0 hPa NNE 9.9 km/h 14.8 km/h 52% 0.0 mm
22:39 27.8 °C 17.2 °C 1012.2 hPa North 9.5 km/h 14.5 km/h 52.7% 0.0 mm
22:44 27.7 °C 17.2 °C 1012.2 hPa NNE 9.3 km/h 14.5 km/h 53% 0.0 mm
22:49 27.5 °C 17.1 °C 1012.2 hPa North 8.7 km/h 12.9 km/h 53% 0.0 mm
22:54 27.4 °C 17 °C 1012.5 hPa NNO 8.2 km/h 9.7 km/h 53% 0.0 mm
22:59 27.4 °C 17.1 °C 1012.5 hPa NNE 6.5 km/h 14.8 km/h 53.4% 0.0 mm
23:04 27.3 °C 17.6 °C 1012.5 hPa NNE 6.9 km/h 14.8 km/h 55.6% 0.0 mm
23:09 27.2 °C 18.2 °C 1012.5 hPa NNE 8.4 km/h 15.6 km/h 58.3% 0.0 mm
23:14 26.9 °C 18.8 °C 1012.5 hPa NNE 8.7 km/h 17.2 km/h 61.1% 0.0 mm
23:19 26.8 °C 18.9 °C 1012.5 hPa NNE 10.3 km/h 17.7 km/h 62.3% 0.0 mm
23:24 26.7 °C 19.1 °C 1012.5 hPa North 10 km/h 14.5 km/h 63.2% 0.0 mm
23:29 26.6 °C 19.2 °C 1012.5 hPa North 8.7 km/h 17.2 km/h 64% 0.0 mm
23:34 26.6 °C 19.1 °C 1012.5 hPa NNE 8.9 km/h 17.7 km/h 63.6% 0.0 mm
23:39 26.6 °C 19.1 °C 1012.5 hPa NNE 9.5 km/h 17.7 km/h 63.5% 0.0 mm
23:44 26.5 °C 19.5 °C 1012.5 hPa NNE 9.7 km/h 16.7 km/h 65.5% 0.0 mm
23:49 26.4 °C 19.7 °C 1012.5 hPa NNE 10.3 km/h 16.7 km/h 66.5% 0.0 mm
23:54 26.3 °C 20 °C 1012.5 hPa NNE 10.2 km/h 16.7 km/h 68.3% 0.0 mm
23:59 26.2 °C 20.2 °C 1012.5 hPa NNE 10 km/h 16.1 km/h 69.5% 0.0 mm
Murcia-Puente Tocinos, España
Compliments of Weather Underground - 3 mb

La estación de MeteoMurcia.com, publica sus datos en los siguientes proyectos:

Weather Underground PWS IMURCIAP2 Meteoclimatic www.awekas.at

W3Counter
Web Analytics